Terminal Aerodrome Forecast
Issued by NWS

Home | Current Version | Previous Version | Text Only | Print | Product List | Glossary On
Versions: 1 2 3 4 5 6 7 8 9 10 11 12 13 14 15 16 17
000
FTUS43 KDLH 280800 AAA
TAFHYR
TAF AMD
KHYR 280837Z 2809/2906 03003KT P6SM SKC WS010/18030KT
     FM281800 34008KT P6SM OVC080
     FM282200 33008KT P6SM VCSH OVC060
     FM290100 35004KT P6SM SCT060=

USA.gov is the U.S. government's official web portal to all federal, state and local government web resources and services.